Terminal Aerodrome Forecast
Issued by NWS

Home | Current Version | Previous Version | Graphics & Text | Print | Product List | Glossary On
Versions: 1 2 3 4 5 6 7 8 9 10 11 12 13 14 15 16 17 18 19 20
997
FTUS43 KICT 271503 AAB
TAFSLN
TAF AMD
KSLN 271503Z 2715/2812 29015G22KT P6SM SCT015 BKN025
     FM271700 28017G24KT P6SM VCSH BKN040
     FM280000 29016G23KT P6SM SCT100=

USA.gov is the U.S. government's official web portal to all federal, state and local government web resources and services.